createdAt,value
2022-10-31T00:02:20.327Z,25.13
2022-10-31T00:05:23.163Z,24.60
2022-10-31T00:08:27.311Z,25.10
2022-10-31T00:11:30.291Z,24.80
2022-10-31T00:14:33.087Z,25.97
2022-10-31T00:17:37.353Z,25.80
2022-10-31T00:20:40.881Z,26.40
2022-10-31T00:23:45.448Z,26.87
2022-10-31T00:26:48.251Z,24.67
2022-10-31T00:30:00.158Z,25.00
2022-10-31T00:33:06.422Z,26.97
2022-10-31T00:36:13.005Z,26.13
2022-10-31T00:39:15.778Z,26.13
2022-10-31T00:42:18.572Z,25.93
2022-10-31T00:45:22.725Z,26.30
2022-10-31T00:48:25.620Z,26.00
2022-10-31T00:51:31.470Z,28.53
2022-10-31T00:54:34.248Z,27.37
2022-10-31T00:57:37.013Z,25.47
2022-10-31T01:00:41.097Z,25.10
2022-10-31T01:03:43.935Z,25.17
2022-10-31T01:06:46.720Z,23.57
2022-10-31T01:09:49.573Z,21.63
2022-10-31T01:12:55.521Z,21.67
2022-10-31T01:16:08.232Z,21.10
2022-10-31T01:19:11.009Z,19.93
2022-10-31T01:22:13.836Z,21.63
2022-10-31T01:25:16.715Z,18.77
2022-10-31T01:28:19.497Z,18.83
2022-10-31T01:31:27.192Z,16.47
2022-10-31T01:34:30.099Z,17.07
2022-10-31T01:37:33.164Z,19.80
2022-10-31T01:40:36.032Z,18.10
2022-10-31T01:43:51.177Z,17.87
2022-10-31T01:46:59.259Z,20.43
2022-10-31T01:50:05.088Z,18.10
2022-10-31T01:53:10.143Z,19.57
2022-10-31T01:56:13.593Z,18.17
2022-10-31T01:59:19.905Z,18.90
2022-10-31T02:02:24.967Z,17.17
2022-10-31T02:05:31.482Z,16.93
2022-10-31T02:08:36.703Z,16.87
2022-10-31T02:11:39.996Z,20.17
2022-10-31T02:14:46.060Z,17.70
2022-10-31T02:17:51.121Z,18.00
2022-10-31T02:21:00.824Z,16.73
2022-10-31T02:24:42.854Z,17.97
2022-10-31T02:28:03.788Z,16.97
2022-10-31T02:31:20.697Z,16.73
2022-10-31T02:34:28.096Z,16.00
2022-10-31T02:37:36.986Z,15.03
2022-10-31T02:40:50.853Z,15.83
2022-10-31T02:44:01.111Z,16.50
2022-10-31T02:47:10.616Z,15.00
2022-10-31T02:50:18.089Z,15.07
2022-10-31T02:53:20.911Z,15.07
2022-10-31T02:56:29.178Z,14.50
2022-10-31T02:59:37.786Z,14.63
2022-10-31T03:03:03.711Z,14.57
2022-10-31T03:06:16.430Z,17.40
2022-10-31T03:09:26.675Z,17.40
2022-10-31T03:12:32.572Z,17.27
2022-10-31T03:15:38.485Z,16.00
2022-10-31T03:18:48.539Z,14.70
2022-10-31T03:21:56.253Z,16.13
2022-10-31T03:25:01.885Z,14.80
2022-10-31T03:28:06.381Z,13.97
2022-10-31T03:31:10.984Z,16.67
2022-10-31T03:34:23.057Z,14.40
2022-10-31T03:37:29.699Z,15.90
2022-10-31T03:40:35.365Z,14.87
2022-10-31T03:43:42.650Z,15.27
2022-10-31T03:46:46.025Z,14.67
2022-10-31T03:49:50.336Z,15.00
2022-10-31T03:52:59.743Z,14.93
2022-10-31T03:56:04.924Z,15.40
2022-10-31T03:59:11.522Z,15.77
2022-10-31T04:02:18.017Z,14.47
2022-10-31T04:05:23.418Z,14.60
2022-10-31T04:08:29.912Z,17.60
2022-10-31T04:11:38.146Z,15.80
2022-10-31T04:14:43.391Z,15.60
2022-10-31T04:17:49.417Z,15.20
2022-10-31T04:21:02.280Z,14.20
2022-10-31T04:24:05.639Z,15.20
2022-10-31T04:27:08.661Z,14.67
2022-10-31T04:30:12.306Z,14.13
2022-10-31T04:33:15.957Z,14.20
2022-10-31T04:36:20.083Z,14.93
2022-10-31T04:39:26.590Z,14.33
2022-10-31T04:42:31.584Z,14.70
2022-10-31T04:45:34.395Z,14.43
2022-10-31T04:48:37.190Z,15.37
2022-10-31T04:51:41.335Z,14.47
2022-10-31T04:54:44.122Z,14.07
2022-10-31T04:57:47.919Z,13.97
2022-10-31T05:00:54.637Z,15.73
2022-10-31T05:03:57.494Z,14.63
2022-10-31T05:07:01.625Z,14.50
2022-10-31T05:10:04.464Z,14.93
2022-10-31T05:13:07.570Z,15.47
2022-10-31T05:16:10.458Z,14.90
2022-10-31T05:19:13.858Z,15.60
2022-10-31T05:22:18.113Z,15.70
2022-10-31T05:25:22.384Z,14.80
2022-10-31T05:28:25.225Z,14.73
2022-10-31T05:31:28.058Z,15.57
2022-10-31T05:34:30.822Z,15.47
2022-10-31T05:37:34.970Z,14.93
2022-10-31T05:40:37.765Z,16.23
2022-10-31T05:43:40.534Z,16.80
2022-10-31T05:46:43.347Z,15.03
2022-10-31T05:49:46.186Z,16.00
2022-10-31T05:52:56.492Z,17.43
2022-10-31T05:55:59.599Z,15.73
2022-10-31T05:59:02.354Z,18.77
2022-10-31T06:02:05.154Z,16.70
2022-10-31T06:05:08.559Z,17.13
2022-10-31T06:08:12.737Z,18.27
2022-10-31T06:11:15.627Z,18.10
2022-10-31T06:14:18.437Z,17.40
2022-10-31T06:17:21.607Z,15.67
2022-10-31T06:20:24.445Z,17.00
2022-10-31T06:23:28.620Z,17.57
2022-10-31T06:26:31.407Z,17.07
2022-10-31T06:29:34.365Z,17.23
2022-10-31T06:32:37.170Z,18.17
2022-10-31T06:35:39.888Z,16.73
2022-10-31T06:38:45.032Z,16.33
2022-10-31T06:41:53.752Z,15.83
2022-10-31T06:44:56.525Z,15.73
2022-10-31T06:51:22.407Z,16.97
2022-10-31T06:54:26.523Z,18.27
2022-10-31T06:57:29.273Z,17.70
2022-10-31T07:00:32.759Z,17.80
2022-10-31T07:03:35.647Z,16.10
2022-10-31T07:06:38.475Z,17.33
2022-10-31T07:09:46.726Z,18.30
2022-10-31T07:12:57.053Z,17.97
2022-10-31T07:16:03.178Z,17.87
2022-10-31T07:19:06.904Z,16.20
2022-10-31T07:22:09.667Z,16.57
2022-10-31T07:25:16.121Z,17.90
2022-10-31T07:28:18.898Z,18.03
2022-10-31T07:31:21.720Z,17.20
2022-10-31T07:34:24.477Z,17.83
2022-10-31T07:37:39.660Z,16.83
2022-10-31T07:40:44.590Z,16.77
2022-10-31T07:43:47.751Z,16.93
2022-10-31T07:46:50.558Z,16.13
2022-10-31T07:49:53.359Z,17.33
2022-10-31T07:53:03.212Z,18.57
2022-10-31T07:56:07.872Z,17.83
2022-10-31T07:59:10.656Z,18.40
2022-10-31T08:02:13.446Z,19.70
2022-10-31T08:05:16.395Z,21.00
2022-10-31T08:08:19.183Z,20.93
2022-10-31T08:11:26.214Z,20.87
2022-10-31T08:14:29.106Z,20.93
2022-10-31T08:17:32.293Z,21.87
2022-10-31T08:20:35.239Z,20.93
2022-10-31T08:23:38.176Z,21.80
2022-10-31T08:26:42.419Z,23.40
2022-10-31T08:29:45.179Z,24.47
2022-10-31T08:32:48.582Z,24.17
2022-10-31T08:35:51.712Z,22.80
2022-10-31T08:38:59.179Z,24.27
2022-10-31T08:42:06.308Z,27.53
2022-10-31T08:45:09.693Z,27.83
2022-10-31T08:48:14.341Z,28.37
2022-10-31T08:51:17.175Z,26.67
2022-10-31T08:54:20.004Z,25.40
2022-10-31T08:57:24.303Z,25.43
2022-10-31T09:00:29.037Z,28.40
2022-10-31T09:03:32.938Z,27.13
2022-10-31T09:06:38.000Z,24.47
2022-10-31T09:09:40.940Z,26.37
2022-10-31T09:12:45.113Z,26.93
2022-10-31T09:15:50.333Z,24.57
2022-10-31T09:18:53.107Z,27.13
2022-10-31T09:21:56.270Z,29.00
2022-10-31T09:24:59.081Z,29.63
2022-10-31T09:28:05.546Z,30.50
2022-10-31T09:31:08.910Z,29.33
2022-10-31T09:34:11.663Z,29.67
2022-10-31T09:37:14.442Z,28.87
2022-10-31T09:40:17.312Z,29.33
2022-10-31T09:43:29.996Z,28.83
2022-10-31T09:46:38.860Z,32.43
2022-10-31T09:50:01.332Z,31.83
2022-10-31T09:53:10.140Z,30.80
2022-10-31T09:56:17.613Z,29.30
2022-10-31T09:59:27.449Z,26.90
2022-10-31T10:02:36.708Z,26.90
2022-10-31T10:05:43.435Z,26.83
2022-10-31T10:08:48.093Z,26.03
2022-10-31T10:12:04.020Z,23.90
2022-10-31T10:15:32.037Z,25.70
2022-10-31T10:18:43.805Z,24.23
2022-10-31T10:21:52.931Z,24.97
2022-10-31T10:25:10.778Z,27.37
2022-10-31T10:28:22.952Z,27.70
2022-10-31T10:31:33.851Z,25.93
2022-10-31T10:34:41.978Z,26.23
2022-10-31T10:37:47.733Z,28.73
2022-10-31T10:40:51.053Z,28.07
2022-10-31T10:43:55.976Z,27.23
2022-10-31T10:47:20.699Z,26.63
2022-10-31T10:50:36.277Z,26.77
2022-10-31T10:54:03.197Z,27.63
2022-10-31T10:57:21.101Z,24.50
2022-10-31T11:00:29.363Z,26.23
2022-10-31T11:03:37.537Z,22.87
2022-10-31T11:06:40.568Z,25.73
2022-10-31T11:09:43.451Z,24.67
2022-10-31T11:12:59.213Z,23.97
2022-10-31T11:16:06.438Z,22.23
2022-10-31T11:19:17.039Z,25.37
2022-10-31T11:22:19.993Z,24.23
2022-10-31T11:25:23.829Z,23.17
2022-10-31T11:28:27.379Z,25.80
2022-10-31T11:31:36.619Z,26.67
2022-10-31T11:34:47.419Z,25.30
2022-10-31T11:37:52.534Z,25.03
2022-10-31T11:41:01.925Z,24.13
2022-10-31T11:44:07.286Z,23.03
2022-10-31T11:47:16.144Z,24.73
2022-10-31T11:50:26.459Z,26.43
2022-10-31T11:53:31.737Z,28.10
2022-10-31T11:56:41.806Z,30.97
2022-10-31T11:59:53.532Z,29.63
2022-10-31T12:03:25.695Z,29.27
2022-10-31T12:06:33.552Z,27.10
2022-10-31T12:09:38.027Z,26.00
2022-10-31T12:12:59.638Z,27.00
2022-10-31T12:16:13.715Z,30.40
2022-10-31T12:19:26.939Z,30.67
2022-10-31T12:22:38.387Z,29.73
2022-10-31T12:25:48.659Z,27.20
2022-10-31T12:29:09.547Z,30.27
2022-10-31T12:32:26.176Z,30.77
2022-10-31T12:35:41.439Z,30.30
2022-10-31T12:39:04.111Z,30.20
2022-10-31T12:42:19.366Z,28.17
2022-10-31T12:45:42.294Z,24.93
2022-10-31T12:49:29.966Z,29.77
2022-10-31T12:52:49.959Z,31.37
2022-10-31T12:56:11.252Z,30.33
2022-10-31T12:59:25.811Z,22.57
2022-10-31T13:02:35.271Z,28.07
2022-10-31T13:05:42.483Z,28.43
2022-10-31T13:08:49.720Z,30.20
2022-10-31T13:11:59.032Z,30.90
2022-10-31T13:15:06.707Z,25.50
2022-10-31T13:18:21.241Z,26.20
2022-10-31T13:21:27.337Z,30.47
2022-10-31T13:24:38.954Z,24.30
2022-10-31T13:27:50.078Z,25.60
2022-10-31T13:30:54.886Z,24.57
2022-10-31T13:34:01.666Z,25.50
2022-10-31T13:37:15.780Z,21.03
2022-10-31T13:40:31.492Z,23.20
2022-10-31T13:43:52.711Z,26.60
2022-10-31T13:46:57.617Z,25.40
2022-10-31T13:50:20.245Z,22.37
2022-10-31T13:53:25.252Z,26.60
2022-10-31T13:56:30.759Z,27.90
2022-10-31T13:59:39.437Z,27.33
2022-10-31T14:02:49.951Z,25.93
2022-10-31T14:05:55.419Z,21.40
2022-10-31T14:08:58.287Z,20.70
2022-10-31T14:12:05.821Z,23.23
2022-10-31T14:15:18.392Z,23.87
2022-10-31T14:18:26.169Z,19.63
2022-10-31T14:21:30.836Z,24.43
2022-10-31T14:24:36.963Z,22.93
2022-10-31T14:27:48.279Z,24.53
2022-10-31T14:30:57.762Z,25.13
2022-10-31T14:34:01.227Z,27.27
2022-10-31T14:37:34.930Z,31.97
2022-10-31T14:44:10.607Z,34.53
2022-10-31T14:47:28.306Z,32.80
2022-10-31T14:50:43.277Z,35.07
2022-10-31T14:53:50.294Z,36.13
2022-10-31T14:56:55.551Z,36.20
2022-10-31T15:00:03.956Z,35.60
2022-10-31T15:03:15.764Z,36.13
2022-10-31T15:06:21.118Z,32.60
2022-10-31T15:09:26.613Z,36.17
2022-10-31T15:12:32.108Z,35.17
2022-10-31T15:15:35.801Z,33.90
2022-10-31T15:18:48.443Z,33.57
2022-10-31T15:21:53.234Z,32.90
2022-10-31T15:24:57.327Z,33.43
2022-10-31T15:28:00.436Z,38.10
2022-10-31T15:31:04.508Z,36.87
2022-10-31T15:34:22.622Z,36.03
2022-10-31T15:37:27.637Z,34.93
2022-10-31T15:40:30.412Z,31.90
2022-10-31T15:43:37.156Z,30.10
2022-10-31T15:46:40.109Z,31.63
2022-10-31T15:49:49.624Z,33.53
2022-10-31T15:52:52.731Z,31.03
2022-10-31T15:55:57.757Z,35.17
2022-10-31T15:59:02.965Z,35.00
2022-10-31T16:02:12.722Z,38.00
2022-10-31T16:05:21.447Z,34.57
2022-10-31T16:08:27.930Z,36.47
2022-10-31T16:11:36.727Z,33.20
2022-10-31T16:14:42.168Z,30.10
2022-10-31T16:17:48.507Z,33.20
2022-10-31T16:21:02.782Z,31.83
2022-10-31T16:24:14.923Z,31.40
2022-10-31T16:27:24.229Z,31.93
2022-10-31T16:30:32.340Z,31.83
2022-10-31T16:33:37.490Z,29.90
2022-10-31T16:36:42.172Z,36.73
2022-10-31T16:39:45.778Z,32.07
2022-10-31T16:42:49.841Z,33.33
2022-10-31T16:45:54.068Z,32.03
2022-10-31T16:48:57.125Z,35.87
2022-10-31T16:52:01.249Z,32.00
2022-10-31T16:55:04.213Z,33.30
2022-10-31T16:58:14.896Z,31.63
2022-10-31T17:01:18.433Z,29.23
2022-10-31T17:04:21.263Z,35.13
2022-10-31T17:07:25.526Z,30.80
2022-10-31T17:10:29.286Z,33.50
2022-10-31T17:13:36.434Z,33.33
2022-10-31T17:16:39.470Z,39.83
2022-10-31T17:19:43.005Z,34.33
2022-10-31T17:22:47.217Z,33.37
2022-10-31T17:25:49.994Z,42.37
2022-10-31T17:28:52.839Z,42.50
2022-10-31T17:31:55.770Z,41.23
2022-10-31T17:34:58.578Z,38.57
2022-10-31T17:38:05.833Z,44.60
2022-10-31T17:41:11.306Z,38.83
2022-10-31T17:44:14.623Z,46.30
2022-10-31T17:47:17.445Z,41.83
2022-10-31T17:50:21.910Z,46.63
2022-10-31T17:53:26.034Z,44.40
2022-10-31T17:56:28.837Z,44.87
2022-10-31T17:59:31.621Z,50.43
2022-10-31T18:02:34.805Z,49.40
2022-10-31T18:05:38.039Z,47.83
2022-10-31T18:08:42.446Z,55.27
2022-10-31T18:11:45.304Z,48.37
2022-10-31T18:14:48.743Z,45.73
2022-10-31T18:17:51.563Z,45.70
2022-10-31T18:20:57.660Z,47.23
2022-10-31T18:24:02.895Z,50.17
2022-10-31T18:27:06.007Z,50.70
2022-10-31T18:30:09.814Z,47.13
2022-10-31T18:33:13.082Z,45.97
2022-10-31T18:36:15.925Z,42.90
2022-10-31T18:39:20.041Z,39.17
2022-10-31T18:42:22.816Z,39.87
2022-10-31T18:45:45.860Z,42.93
2022-10-31T18:48:48.412Z,44.77
2022-10-31T18:51:51.597Z,41.50
2022-10-31T18:54:55.825Z,37.40
2022-10-31T18:57:58.675Z,38.63
2022-10-31T19:01:08.494Z,40.73
2022-10-31T19:04:12.151Z,39.97
2022-10-31T19:07:15.001Z,43.00
2022-10-31T19:10:19.090Z,39.23
2022-10-31T19:13:21.843Z,39.60
2022-10-31T19:16:24.681Z,38.80
2022-10-31T19:19:27.448Z,39.93
2022-10-31T19:22:33.850Z,40.87
2022-10-31T19:25:38.645Z,36.20
2022-10-31T19:28:42.676Z,40.80
2022-10-31T19:31:45.451Z,36.53
2022-10-31T19:34:48.239Z,37.87
2022-10-31T19:37:51.069Z,37.00
2022-10-31T19:40:59.057Z,35.77
2022-10-31T19:44:02.014Z,32.17
2022-10-31T19:47:04.822Z,35.67
2022-10-31T19:50:08.839Z,35.03
2022-10-31T19:53:15.741Z,37.10
2022-10-31T19:56:22.075Z,36.23
2022-10-31T19:59:25.029Z,34.03
2022-10-31T20:02:34.172Z,38.90
2022-10-31T20:05:41.144Z,40.97
2022-10-31T20:08:44.153Z,42.33
2022-10-31T20:11:48.868Z,41.57
2022-10-31T20:14:51.640Z,39.37
2022-10-31T20:17:55.131Z,37.93
2022-10-31T20:21:04.857Z,35.33
2022-10-31T20:24:09.931Z,39.80
2022-10-31T20:27:15.984Z,38.67
2022-10-31T20:30:19.547Z,36.50
2022-10-31T20:33:22.432Z,34.10
2022-10-31T20:36:25.731Z,36.97
2022-10-31T20:39:36.583Z,35.87
2022-10-31T20:42:40.703Z,31.20
2022-10-31T20:45:43.497Z,32.27
2022-10-31T20:48:46.246Z,32.87
2022-10-31T20:51:49.124Z,29.93
2022-10-31T20:54:51.935Z,30.60
2022-10-31T20:57:56.692Z,27.97
2022-10-31T21:01:01.337Z,37.07
2022-10-31T21:04:08.730Z,33.20
2022-10-31T21:07:20.382Z,34.20
2022-10-31T21:10:23.663Z,34.23
2022-10-31T21:13:29.291Z,31.57
2022-10-31T21:16:36.210Z,34.33
2022-10-31T21:19:38.958Z,33.83
2022-10-31T21:22:43.391Z,37.77
2022-10-31T21:25:46.488Z,31.13
2022-10-31T21:28:53.265Z,31.77
2022-10-31T21:31:56.018Z,28.13
2022-10-31T21:34:58.792Z,27.00
2022-10-31T21:38:02.004Z,32.83
2022-10-31T21:41:07.686Z,35.03
2022-10-31T21:44:11.788Z,37.43
2022-10-31T21:47:14.620Z,33.73
2022-10-31T21:50:17.974Z,34.30
2022-10-31T21:53:38.118Z,37.73
2022-10-31T21:56:41.576Z,36.53
2022-10-31T21:59:48.427Z,34.83
2022-10-31T22:02:51.250Z,37.37
2022-10-31T22:05:59.584Z,36.70
2022-10-31T22:09:05.621Z,33.03
2022-10-31T22:12:09.761Z,36.67
2022-10-31T22:15:13.948Z,39.57
2022-10-31T22:18:16.700Z,34.83
2022-10-31T22:21:23.641Z,34.00
2022-10-31T22:24:26.456Z,34.60
2022-10-31T22:27:29.279Z,37.20
2022-10-31T22:30:34.980Z,31.90
2022-10-31T22:33:38.133Z,31.23
2022-10-31T22:36:41.375Z,27.70
2022-10-31T22:39:44.198Z,26.93
2022-10-31T22:42:46.979Z,32.80
2022-10-31T22:46:00.389Z,35.00
2022-10-31T22:49:05.043Z,30.23
2022-10-31T22:52:07.825Z,34.57
2022-10-31T22:55:11.014Z,32.23
2022-10-31T22:58:13.878Z,42.27
2022-10-31T23:01:21.257Z,38.27
2022-10-31T23:04:24.427Z,42.23
2022-10-31T23:07:32.016Z,45.30
2022-10-31T23:10:41.130Z,42.97
2022-10-31T23:14:06.912Z,45.90
2022-10-31T23:17:17.503Z,44.63
2022-10-31T23:20:20.713Z,41.43
2022-10-31T23:23:23.472Z,37.33
2022-10-31T23:26:54.672Z,43.03
2022-10-31T23:29:59.646Z,45.17
2022-10-31T23:33:04.115Z,43.30
2022-10-31T23:36:07.454Z,38.17
2022-10-31T23:39:10.222Z,40.83
2022-10-31T23:42:13.725Z,42.23
2022-10-31T23:45:16.687Z,45.23
2022-10-31T23:48:20.815Z,47.40
2022-10-31T23:51:23.658Z,42.30
2022-10-31T23:54:27.542Z,38.37
2022-10-31T23:57:30.294Z,45.77
